Time;durP1;ratioP1;P1;durP2;ratioP2;P2;SDS_P1;SDS_P2;PMS_P1;PMS_P2;Temp;Humidity;BMP_temperature;BMP_pressure;BME280_temperature;BME280_humidity;BME280_pressure;Samples;Min_cycle;Max_cycle;Signal;HPM_P1;HPM_P2
2021/08/10 00:01:27;;;;;;;;;;;28.60;92.00;;;;;;5046987;28;20122;-49
2021/08/10 00:03:54;;;;;;;;;;;28.60;92.20;;;;;;5046989;28;19911;-48
2021/08/10 00:06:20;;;;;;;;;;;28.40;92.30;;;;;;5046975;28;19913;-47
2021/08/10 00:08:46;;;;;;;;;;;28.40;92.40;;;;;;5046401;28;19909;-47
2021/08/10 00:11:12;;;;;;;;;;;28.30;92.60;;;;;;5046231;28;20004;-47
2021/08/10 00:13:39;;;;;;;;;;;28.30;92.80;;;;;;5027591;28;19972;-54
2021/08/10 00:16:05;;;;;;;;;;;28.30;92.80;;;;;;5046122;28;19928;-50
2021/08/10 00:18:32;;;;;;;;;;;28.40;92.90;;;;;;5046532;28;19906;-52
2021/08/10 00:20:58;;;;;;;;;;;28.30;93.10;;;;;;5046552;28;19928;-48
2021/08/10 00:23:24;;;;;;;;;;;28.30;93.20;;;;;;5046564;28;20129;-55
2021/08/10 00:25:50;;;;;;;;;;;28.30;93.20;;;;;;5028775;28;19905;-53
2021/08/10 00:28:17;;;;;;;;;;;28.30;92.70;;;;;;5046515;28;19913;-48
2021/08/10 00:30:44;;;;;;;;;;;28.30;92.60;;;;;;5046523;28;20169;-48
2021/08/10 00:33:11;;;;;;;;;;;28.30;92.60;;;;;;5046279;28;19913;-47
2021/08/10 00:35:37;;;;;;;;;;;28.30;92.70;;;;;;5046158;28;19905;-46
2021/08/10 00:38:04;;;;;;;;;;;28.30;92.80;;;;;;5046251;28;19912;-48
2021/08/10 00:40:31;;;;;;;;;;;28.30;93.00;;;;;;5045788;28;19928;-49
2021/08/10 00:42:57;;;;;;;;;;;28.20;92.90;;;;;;5045060;28;19913;-48
2021/08/10 00:45:24;;;;;;;;;;;28.20;92.90;;;;;;5045232;28;19976;-42
2021/08/10 00:47:50;;;;;;;;;;;28.30;93.00;;;;;;5028185;28;19979;-52
2021/08/10 00:50:17;;;;;;;;;;;28.20;93.00;;;;;;5028352;28;19917;-47
2021/08/10 00:52:43;;;;;;;;;;;28.20;92.80;;;;;;5045240;28;19913;-46
2021/08/10 00:55:10;;;;;;;;;;;28.20;92.90;;;;;;5046009;28;19905;-50
2021/08/10 00:57:36;;;;;;;;;;;28.20;92.90;;;;;;5046595;28;19913;-47
2021/08/10 01:00:04;;;;;;;;;;;28.20;92.90;;;;;;5045020;28;19947;-52
2021/08/10 01:02:30;;;;;;;;;;;28.20;93.00;;;;;;5046312;28;19913;-49
2021/08/10 01:04:56;;;;;;;;;;;28.20;93.00;;;;;;5045630;28;19905;-58
2021/08/10 01:07:32;;;;;;;;;;;28.10;93.10;;;;;;5028836;28;19920;-48
2021/08/10 01:10:11;;;;;;;;;;;28.10;93.40;;;;;;5043960;28;19936;-46
2021/08/10 01:12:37;;;;;;;;;;;28.10;93.30;;;;;;5046013;28;19980;-46
2021/08/10 01:15:08;;;;;;;;;;;28.00;93.30;;;;;;5046082;28;19916;-45
2021/08/10 01:17:34;;;;;;;;;;;28.10;93.30;;;;;;5045933;28;19913;-45
2021/08/10 01:20:19;;;;;;;;;;;28.00;93.20;;;;;;5045468;28;19911;-55
2021/08/10 01:22:48;;;;;;;;;;;28.10;93.20;;;;;;5045970;28;19956;-53
2021/08/10 01:25:18;;;;;;;;;;;28.10;93.20;;;;;;5045495;28;20213;-45
2021/08/10 01:28:10;;;;;;;;;;;28.00;93.10;;;;;;5045953;28;19914;-49
2021/08/10 01:30:54;;;;;;;;;;;27.90;92.90;;;;;;5044419;28;19917;-46
2021/08/10 01:33:21;;;;;;;;;;;27.90;92.70;;;;;;5027953;28;19914;-50
2021/08/10 01:35:48;;;;;;;;;;;27.80;92.60;;;;;;5045775;28;19971;-46
2021/08/10 01:38:15;;;;;;;;;;;27.80;92.40;;;;;;5046353;28;20208;-44
2021/08/10 01:40:43;;;;;;;;;;;27.80;92.20;;;;;;5028978;28;19932;-54
2021/08/10 01:43:09;;;;;;;;;;;27.80;92.20;;;;;;5027684;28;19904;-45
2021/08/10 01:45:38;;;;;;;;;;;27.70;91.90;;;;;;5044889;28;19912;-47
2021/08/10 01:48:09;;;;;;;;;;;27.70;91.90;;;;;;5044995;28;19913;-47
2021/08/10 01:50:36;;;;;;;;;;;27.70;91.70;;;;;;5027299;28;20109;-47
2021/08/10 01:53:07;;;;;;;;;;;27.60;91.60;;;;;;5027204;28;19992;-48
2021/08/10 01:55:36;;;;;;;;;;;27.60;91.50;;;;;;5027006;28;19976;-45
2021/08/10 01:58:02;;;;;;;;;;;27.60;91.40;;;;;;5027220;28;19952;-45
2021/08/10 02:00:29;;;;;;;;;;;27.60;91.40;;;;;;5027113;28;19912;-49
2021/08/10 02:03:14;;;;;;;;;;;27.60;91.30;;;;;;5026655;28;19909;-50
2021/08/10 02:05:44;;;;;;;;;;;27.50;91.40;;;;;;5044786;28;19909;-50
2021/08/10 02:08:14;;;;;;;;;;;27.50;91.40;;;;;;5027064;28;19909;-47
2021/08/10 02:10:41;;;;;;;;;;;27.50;91.40;;;;;;5026919;28;19916;-51
2021/08/10 02:13:09;;;;;;;;;;;27.50;91.20;;;;;;5044621;28;19909;-50
2021/08/10 02:15:38;;;;;;;;;;;27.50;91.30;;;;;;5044522;28;19951;-46
2021/08/10 02:18:04;;;;;;;;;;;27.50;91.20;;;;;;5044626;28;19909;-44
2021/08/10 02:20:31;;;;;;;;;;;27.50;91.10;;;;;;5044306;28;20134;-47
2021/08/10 02:22:58;;;;;;;;;;;27.40;91.10;;;;;;5044628;28;19909;-50
2021/08/10 02:25:25;;;;;;;;;;;27.40;91.10;;;;;;5044485;28;19909;-47
2021/08/10 02:27:52;;;;;;;;;;;27.40;91.00;;;;;;5026790;28;19964;-50
2021/08/10 02:30:23;;;;;;;;;;;27.30;91.00;;;;;;5044128;28;19995;-50
2021/08/10 02:32:50;;;;;;;;;;;27.40;91.10;;;;;;5044784;28;20156;-49
2021/08/10 02:35:19;;;;;;;;;;;27.30;90.90;;;;;;5044213;28;19910;-46
2021/08/10 02:37:46;;;;;;;;;;;27.30;90.70;;;;;;5044208;28;19933;-44
2021/08/10 02:40:14;;;;;;;;;;;27.40;90.40;;;;;;5043900;28;19909;-47
2021/08/10 02:42:42;;;;;;;;;;;27.40;90.30;;;;;;5044683;28;19937;-48
2021/08/10 02:45:08;;;;;;;;;;;27.40;90.20;;;;;;5044068;28;20098;-51
2021/08/10 02:47:34;;;;;;;;;;;27.40;89.80;;;;;;5044543;28;19913;-51
2021/08/10 02:50:01;;;;;;;;;;;27.40;89.70;;;;;;5043817;28;19917;-51
2021/08/10 02:52:27;;;;;;;;;;;27.30;89.50;;;;;;5044494;28;19916;-44
2021/08/10 02:54:53;;;;;;;;;;;27.30;89.50;;;;;;5044162;28;20005;-53
2021/08/10 02:57:22;;;;;;;;;;;27.30;90.00;;;;;;5044009;28;19912;-47
2021/08/10 02:59:51;;;;;;;;;;;27.30;89.60;;;;;;5044014;28;19963;-50
2021/08/10 03:02:25;;;;;;;;;;;27.30;90.00;;;;;;5044056;28;19906;-47
2021/08/10 03:05:11;;;;;;;;;;;27.40;90.00;;;;;;5044056;28;19905;-44
2021/08/10 03:07:40;;;;;;;;;;;27.40;90.00;;;;;;5047249;28;20085;-48
2021/08/10 03:10:07;;;;;;;;;;;27.40;90.00;;;;;;5047590;28;19924;-50
2021/08/10 03:12:36;;;;;;;;;;;27.40;89.70;;;;;;5030544;28;19909;-48
2021/08/10 03:15:02;;;;;;;;;;;27.50;89.50;;;;;;5048167;28;19921;-47
2021/08/10 03:17:32;;;;;;;;;;;27.40;89.50;;;;;;5048159;28;19932;-46
2021/08/10 03:19:59;;;;;;;;;;;27.40;89.50;;;;;;5030510;28;19913;-48
2021/08/10 03:22:27;;;;;;;;;;;27.40;89.50;;;;;;5047817;28;19908;-49
2021/08/10 03:24:54;;;;;;;;;;;27.50;89.10;;;;;;5047671;28;19913;-49
2021/08/10 03:27:22;;;;;;;;;;;27.30;89.30;;;;;;5047287;28;19906;-49
2021/08/10 03:29:48;;;;;;;;;;;27.30;89.10;;;;;;5045442;28;20101;-45
2021/08/10 03:32:21;;;;;;;;;;;27.30;89.30;;;;;;5046334;28;20185;-50
2021/08/10 03:34:47;;;;;;;;;;;27.30;89.80;;;;;;5048050;28;19905;-49
2021/08/10 03:37:15;;;;;;;;;;;27.30;90.10;;;;;;5047544;28;19912;-45
2021/08/10 03:39:41;;;;;;;;;;;27.30;90.30;;;;;;5029984;28;19905;-51
2021/08/10 03:42:08;;;;;;;;;;;27.20;90.30;;;;;;5052360;28;19904;-51
2021/08/10 03:44:36;;;;;;;;;;;27.20;90.60;;;;;;5067473;28;20193;-49
2021/08/10 03:47:02;;;;;;;;;;;27.10;90.70;;;;;;5060498;28;20097;-52
2021/08/10 03:49:30;;;;;;;;;;;27.10;90.80;;;;;;5047126;28;20086;-51
2021/08/10 03:51:56;;;;;;;;;;;27.10;90.90;;;;;;5047926;28;19921;-47
2021/08/10 03:54:22;;;;;;;;;;;27.10;90.90;;;;;;5047387;28;19944;-44
2021/08/10 03:56:50;;;;;;;;;;;27.10;90.90;;;;;;5047125;28;19913;-46
2021/08/10 03:59:18;;;;;;;;;;;27.10;91.00;;;;;;5047403;28;19905;-45
2021/08/10 04:01:46;;;;;;;;;;;27.10;91.00;;;;;;5047670;28;19928;-48
2021/08/10 04:04:12;;;;;;;;;;;27.20;91.10;;;;;;5047526;28;19912;-48
2021/08/10 04:06:39;;;;;;;;;;;27.20;91.20;;;;;;5047655;28;19925;-47
2021/08/10 04:09:06;;;;;;;;;;;27.10;91.30;;;;;;5047406;28;19924;-47
2021/08/10 04:11:32;;;;;;;;;;;27.10;91.40;;;;;;5047432;28;19940;-47
2021/08/10 04:14:00;;;;;;;;;;;27.10;91.50;;;;;;5047104;28;20248;-45
2021/08/10 04:16:28;;;;;;;;;;;27.10;91.50;;;;;;5046767;28;19921;-46
2021/08/10 04:18:54;;;;;;;;;;;27.00;91.40;;;;;;5046864;28;19968;-55
2021/08/10 04:21:24;;;;;;;;;;;27.10;91.30;;;;;;5047104;28;19913;-48
2021/08/10 04:23:50;;;;;;;;;;;27.10;91.40;;;;;;5046967;28;19913;-52
2021/08/10 04:26:17;;;;;;;;;;;27.00;91.70;;;;;;5046861;28;19941;-49
2021/08/10 04:28:43;;;;;;;;;;;27.00;91.80;;;;;;5029021;28;19912;-44
2021/08/10 04:31:09;;;;;;;;;;;27.10;91.80;;;;;;5029068;28;19917;-49
2021/08/10 04:33:35;;;;;;;;;;;27.10;91.80;;;;;;5053971;28;20186;-49
2021/08/10 04:36:01;;;;;;;;;;;27.10;91.80;;;;;;5066760;28;19913;-49
2021/08/10 04:38:28;;;;;;;;;;;27.20;92.00;;;;;;5057148;28;20008;-48
2021/08/10 04:40:54;;;;;;;;;;;27.20;92.00;;;;;;5045541;28;19921;-42
2021/08/10 04:43:20;;;;;;;;;;;27.20;92.10;;;;;;5028999;28;19951;-53
2021/08/10 04:45:46;;;;;;;;;;;27.20;92.20;;;;;;5046571;28;19948;-47
2021/08/10 04:48:13;;;;;;;;;;;27.30;92.30;;;;;;5046632;28;19909;-49
2021/08/10 04:50:39;;;;;;;;;;;27.30;92.30;;;;;;5046516;28;20144;-44
2021/08/10 04:53:05;;;;;;;;;;;27.30;92.50;;;;;;5046355;28;19933;-48
2021/08/10 04:55:31;;;;;;;;;;;27.30;92.40;;;;;;5028552;28;20213;-50
2021/08/10 04:57:57;;;;;;;;;;;27.30;92.40;;;;;;5046298;28;19912;-45
2021/08/10 05:00:24;;;;;;;;;;;27.20;92.40;;;;;;5045985;28;19995;-45
2021/08/10 05:02:50;;;;;;;;;;;27.20;92.20;;;;;;5046220;28;19905;-50
2021/08/10 05:05:16;;;;;;;;;;;27.20;92.30;;;;;;5046052;28;19935;-47
2021/08/10 05:07:42;;;;;;;;;;;27.20;92.30;;;;;;5045971;28;19905;-45
2021/08/10 05:10:09;;;;;;;;;;;27.20;92.30;;;;;;5045793;28;19971;-46
2021/08/10 05:12:36;;;;;;;;;;;27.20;92.20;;;;;;5046078;28;19913;-46
2021/08/10 05:15:02;;;;;;;;;;;27.20;92.10;;;;;;5045863;28;20092;-45
2021/08/10 05:17:29;;;;;;;;;;;27.20;92.10;;;;;;5045765;28;19913;-46
2021/08/10 05:19:55;;;;;;;;;;;27.30;92.10;;;;;;5045798;28;19944;-48
2021/08/10 05:22:21;;;;;;;;;;;27.30;92.10;;;;;;5045548;28;19905;-50
2021/08/10 05:24:47;;;;;;;;;;;27.20;92.10;;;;;;5045552;28;19908;-48
2021/08/10 05:27:13;;;;;;;;;;;27.30;92.30;;;;;;5045589;28;20161;-54
2021/08/10 05:29:40;;;;;;;;;;;27.20;92.20;;;;;;5044793;28;19909;-48
2021/08/10 05:32:06;;;;;;;;;;;27.20;92.20;;;;;;5045435;28;19909;-48
2021/08/10 05:34:32;;;;;;;;;;;27.20;92.30;;;;;;5045486;28;19909;-53
2021/08/10 05:36:58;;;;;;;;;;;27.20;92.30;;;;;;5045864;28;20089;-52
2021/08/10 05:39:24;;;;;;;;;;;27.20;92.40;;;;;;5045134;28;19916;-50
2021/08/10 05:41:50;;;;;;;;;;;27.20;92.40;;;;;;5045756;28;19909;-50
2021/08/10 05:44:17;;;;;;;;;;;27.20;92.50;;;;;;5045136;28;19913;-48
2021/08/10 05:46:43;;;;;;;;;;;27.20;92.50;;;;;;5045356;28;19985;-47
2021/08/10 05:49:10;;;;;;;;;;;27.20;92.60;;;;;;5044505;28;19921;-43
2021/08/10 05:51:36;;;;;;;;;;;27.20;92.70;;;;;;5045397;28;20089;-51
2021/08/10 05:54:02;;;;;;;;;;;27.20;92.70;;;;;;5044780;28;19944;-48
2021/08/10 05:56:29;;;;;;;;;;;27.10;92.70;;;;;;5045402;28;19909;-49
2021/08/10 05:58:55;;;;;;;;;;;27.20;92.50;;;;;;5044832;28;19937;-48
2021/08/10 06:01:21;;;;;;;;;;;27.10;92.40;;;;;;5027325;28;19913;-47
2021/08/10 06:03:47;;;;;;;;;;;27.10;92.40;;;;;;5044763;28;19963;-47
2021/08/10 06:06:13;;;;;;;;;;;27.10;92.40;;;;;;5045069;28;20089;-51
2021/08/10 06:08:40;;;;;;;;;;;27.10;92.40;;;;;;5044882;28;19980;-49
2021/08/10 06:11:06;;;;;;;;;;;27.10;92.40;;;;;;5044840;28;19920;-50
2021/08/10 06:13:34;;;;;;;;;;;27.10;92.20;;;;;;5044950;28;20130;-51
2021/08/10 06:16:00;;;;;;;;;;;27.10;92.30;;;;;;5044847;28;19916;-44
2021/08/10 06:18:26;;;;;;;;;;;27.00;92.50;;;;;;5044687;28;19909;-48
2021/08/10 06:20:52;;;;;;;;;;;27.10;92.30;;;;;;5044659;28;19909;-50
2021/08/10 06:23:19;;;;;;;;;;;27.00;92.30;;;;;;5044594;28;19932;-54
2021/08/10 06:25:45;;;;;;;;;;;27.00;92.40;;;;;;5044585;28;19915;-51
2021/08/10 06:28:11;;;;;;;;;;;27.00;92.30;;;;;;5044496;28;19916;-47
2021/08/10 06:30:37;;;;;;;;;;;27.00;92.30;;;;;;5044630;28;20093;-49
2021/08/10 06:33:03;;;;;;;;;;;27.00;92.40;;;;;;5044360;28;20197;-49
2021/08/10 06:35:32;;;;;;;;;;;27.00;92.30;;;;;;5044777;28;20197;-50
2021/08/10 06:37:58;;;;;;;;;;;27.00;92.30;;;;;;5044516;28;20097;-49
2021/08/10 06:40:24;;;;;;;;;;;27.00;92.10;;;;;;5043571;28;19932;-46
2021/08/10 06:42:51;;;;;;;;;;;27.00;91.90;;;;;;5044296;28;19909;-48
2021/08/10 06:45:17;;;;;;;;;;;27.00;91.90;;;;;;5027058;28;20098;-47
2021/08/10 06:47:44;;;;;;;;;;;27.00;92.00;;;;;;5044175;28;20259;-46
2021/08/10 06:50:10;;;;;;;;;;;27.00;91.90;;;;;;5043949;28;20186;-52
2021/08/10 06:52:36;;;;;;;;;;;26.90;91.90;;;;;;5044220;28;19928;-48
2021/08/10 06:55:03;;;;;;;;;;;26.90;92.00;;;;;;5044193;28;19945;-49
2021/08/10 06:57:29;;;;;;;;;;;26.90;92.10;;;;;;5044493;28;19913;-53
2021/08/10 06:59:55;;;;;;;;;;;27.00;92.10;;;;;;5044071;28;19948;-50
2021/08/10 07:02:21;;;;;;;;;;;27.00;92.00;;;;;;5044094;28;19928;-51
2021/08/10 07:04:47;;;;;;;;;;;26.90;92.00;;;;;;5026208;28;20136;-52
2021/08/10 07:07:13;;;;;;;;;;;26.90;92.10;;;;;;5044091;28;19909;-51
2021/08/10 07:09:39;;;;;;;;;;;26.90;92.10;;;;;;5044036;28;19909;-49
2021/08/10 07:12:06;;;;;;;;;;;26.90;92.10;;;;;;5043857;28;19905;-48
2021/08/10 07:14:32;;;;;;;;;;;26.90;92.00;;;;;;5044072;28;19906;-50
2021/08/10 07:16:58;;;;;;;;;;;26.90;92.20;;;;;;5044385;28;19948;-47
2021/08/10 07:19:24;;;;;;;;;;;26.90;92.20;;;;;;5043750;28;19905;-51
2021/08/10 07:21:50;;;;;;;;;;;26.90;92.30;;;;;;5044325;28;19987;-50
2021/08/10 07:24:17;;;;;;;;;;;26.90;92.10;;;;;;5044050;28;19905;-50
2021/08/10 07:26:43;;;;;;;;;;;26.90;92.00;;;;;;5044100;28;19913;-51
2021/08/10 07:29:09;;;;;;;;;;;26.90;92.10;;;;;;5043738;28;19905;-47
2021/08/10 07:31:35;;;;;;;;;;;26.80;92.10;;;;;;5044270;28;19917;-53
2021/08/10 07:34:01;;;;;;;;;;;26.80;92.20;;;;;;5043720;28;19912;-50
2021/08/10 07:36:27;;;;;;;;;;;26.90;92.20;;;;;;5044233;28;19988;-49
2021/08/10 07:38:54;;;;;;;;;;;26.80;92.10;;;;;;5043815;28;20212;-48
2021/08/10 07:41:20;;;;;;;;;;;26.80;92.10;;;;;;5043661;28;19951;-48
2021/08/10 07:43:46;;;;;;;;;;;26.80;92.10;;;;;;5043589;28;19928;-46
2021/08/10 07:46:12;;;;;;;;;;;26.80;92.20;;;;;;5043980;28;20186;-50
2021/08/10 07:48:38;;;;;;;;;;;26.80;92.20;;;;;;5043741;28;19905;-48
2021/08/10 07:51:04;;;;;;;;;;;26.80;92.20;;;;;;5043579;28;19921;-48
2021/08/10 07:53:31;;;;;;;;;;;26.90;92.30;;;;;;5046528;28;19929;-46
2021/08/10 07:55:57;;;;;;;;;;;26.80;92.20;;;;;;5047379;28;19936;-48
2021/08/10 07:58:23;;;;;;;;;;;26.90;92.20;;;;;;5047044;28;19905;-53
2021/08/10 08:00:49;;;;;;;;;;;26.90;92.10;;;;;;5047391;28;20248;-48
2021/08/10 08:03:15;;;;;;;;;;;26.80;92.10;;;;;;5046928;28;19906;-54
2021/08/10 08:05:42;;;;;;;;;;;26.90;92.10;;;;;;5047012;28;19982;-46
2021/08/10 08:14:16;;;;;;;;;;;26.80;91.80;;;;;;5046650;28;19911;-46
2021/08/10 08:16:42;;;;;;;;;;;26.80;91.90;;;;;;5047226;28;19919;-49
2021/08/10 08:19:08;;;;;;;;;;;26.70;91.90;;;;;;5046744;28;19905;-49
2021/08/10 08:21:35;;;;;;;;;;;26.70;91.90;;;;;;5047038;28;20193;-49
2021/08/10 08:24:01;;;;;;;;;;;26.70;91.90;;;;;;5046813;28;19920;-58
2021/08/10 08:26:27;;;;;;;;;;;26.70;91.90;;;;;;5047023;28;19948;-48
2021/08/10 08:28:53;;;;;;;;;;;26.70;91.90;;;;;;5046414;28;19905;-51
2021/08/10 08:31:19;;;;;;;;;;;26.70;91.90;;;;;;5046865;28;19944;-49
2021/08/10 08:33:45;;;;;;;;;;;26.70;91.90;;;;;;5046677;28;19948;-48
2021/08/10 08:36:11;;;;;;;;;;;26.70;92.10;;;;;;5046644;28;19913;-51
2021/08/10 08:38:38;;;;;;;;;;;26.80;92.30;;;;;;5046363;28;19905;-51
2021/08/10 08:41:04;;;;;;;;;;;26.70;92.20;;;;;;5046805;28;19913;-50
2021/08/10 08:43:31;;;;;;;;;;;26.70;92.30;;;;;;5046379;28;20101;-51
2021/08/10 08:45:57;;;;;;;;;;;26.70;92.20;;;;;;5046437;28;19956;-56
2021/08/10 08:48:25;;;;;;;;;;;26.60;92.20;;;;;;5046296;28;19906;-53
2021/08/10 08:50:51;;;;;;;;;;;26.60;92.40;;;;;;5046025;28;19980;-46
2021/08/10 08:53:18;;;;;;;;;;;26.60;92.40;;;;;;5046439;28;19906;-50
2021/08/10 08:55:45;;;;;;;;;;;26.60;92.30;;;;;;5046258;28;20161;-55
2021/08/10 08:58:14;;;;;;;;;;;26.60;92.30;;;;;;5045888;28;19909;-48
2021/08/10 09:00:40;;;;;;;;;;;26.60;92.40;;;;;;5046235;28;19913;-49
2021/08/10 09:03:07;;;;;;;;;;;26.60;92.50;;;;;;5045505;28;19906;-55
2021/08/10 09:05:34;;;;;;;;;;;26.60;92.60;;;;;;5045537;28;19913;-51
2021/08/10 09:08:19;;;;;;;;;;;26.60;92.70;;;;;;5045825;28;20153;-51
2021/08/10 09:10:52;;;;;;;;;;;26.60;92.80;;;;;;5046064;28;20035;-46
2021/08/10 09:13:18;;;;;;;;;;;26.60;93.00;;;;;;5045785;28;19906;-47
2021/08/10 09:15:45;;;;;;;;;;;26.60;92.40;;;;;;5046054;28;20182;-50
2021/08/10 09:18:16;;;;;;;;;;;26.60;92.50;;;;;;5045541;28;19912;-50
2021/08/10 09:20:58;;;;;;;;;;;26.60;92.60;;;;;;5045779;28;19913;-50
2021/08/10 09:23:43;;;;;;;;;;;26.60;92.80;;;;;;5045576;28;20202;-55
2021/08/10 09:26:10;;;;;;;;;;;26.50;92.90;;;;;;5045301;28;19913;-47
2021/08/10 09:28:37;;;;;;;;;;;26.50;93.10;;;;;;5045693;28;19905;-53
2021/08/10 09:31:21;;;;;;;;;;;26.50;93.10;;;;;;5045588;28;19974;-48
2021/08/10 09:33:48;;;;;;;;;;;26.50;93.10;;;;;;5045446;28;20196;-48
2021/08/10 09:36:20;;;;;;;;;;;26.50;93.20;;;;;;5045434;28;20254;-46
2021/08/10 09:38:47;;;;;;;;;;;26.40;93.20;;;;;;5045058;28;20060;-50
2021/08/10 09:41:16;;;;;;;;;;;26.40;93.20;;;;;;5045462;28;19913;-48
2021/08/10 09:43:43;;;;;;;;;;;26.40;93.20;;;;;;5044915;28;19905;-49
2021/08/10 09:46:11;;;;;;;;;;;26.40;93.20;;;;;;5045404;28;19920;-49
2021/08/10 09:48:38;;;;;;;;;;;26.40;93.40;;;;;;5044970;28;19972;-50
2021/08/10 09:51:05;;;;;;;;;;;26.40;93.30;;;;;;5044908;28;20238;-52
2021/08/10 09:53:31;;;;;;;;;;;26.40;93.40;;;;;;5044979;28;19905;-50
2021/08/10 09:55:58;;;;;;;;;;;26.30;93.30;;;;;;5045337;28;20228;-50
2021/08/10 09:58:25;;;;;;;;;;;26.30;93.50;;;;;;5044880;28;19905;-50
2021/08/10 10:00:51;;;;;;;;;;;26.30;93.60;;;;;;5045481;28;20093;-47
2021/08/10 10:03:18;;;;;;;;;;;26.30;93.50;;;;;;5045180;28;19968;-47
2021/08/10 10:05:46;;;;;;;;;;;26.30;93.50;;;;;;5044898;28;19913;-52
2021/08/10 10:08:16;;;;;;;;;;;26.30;93.40;;;;;;5044772;28;19905;-51
2021/08/10 10:10:43;;;;;;;;;;;26.30;93.40;;;;;;5044622;28;20000;-48
2021/08/10 10:13:10;;;;;;;;;;;26.30;93.40;;;;;;5044592;28;19905;-48
2021/08/10 10:15:37;;;;;;;;;;;26.40;93.50;;;;;;5044717;28;19913;-52
2021/08/10 10:18:04;;;;;;;;;;;26.30;93.40;;;;;;5044579;28;19921;-49
2021/08/10 10:20:30;;;;;;;;;;;26.30;93.40;;;;;;5044622;28;19913;-46
2021/08/10 10:22:57;;;;;;;;;;;26.30;93.40;;;;;;5044915;28;19932;-55
2021/08/10 10:25:24;;;;;;;;;;;26.30;93.50;;;;;;5044643;28;19913;-50
2021/08/10 10:27:51;;;;;;;;;;;26.30;93.40;;;;;;5044271;28;19912;-48
2021/08/10 10:30:18;;;;;;;;;;;26.30;93.40;;;;;;5044368;28;19988;-51
2021/08/10 10:32:44;;;;;;;;;;;26.30;93.50;;;;;;5044366;28;19909;-50
2021/08/10 10:35:10;;;;;;;;;;;26.30;93.50;;;;;;5044232;28;19913;-47
2021/08/10 10:37:37;;;;;;;;;;;26.30;93.50;;;;;;5044368;28;20176;-51
2021/08/10 10:40:04;;;;;;;;;;;26.30;93.50;;;;;;5044559;28;19924;-49
2021/08/10 10:42:31;;;;;;;;;;;26.30;93.70;;;;;;5044211;28;19937;-50
2021/08/10 10:44:57;;;;;;;;;;;26.30;93.40;;;;;;5044442;28;20216;-52
2021/08/10 10:47:24;;;;;;;;;;;26.30;93.40;;;;;;5044447;28;19943;-46
2021/08/10 10:49:50;;;;;;;;;;;26.30;93.40;;;;;;5043748;28;20227;-50
2021/08/10 10:52:17;;;;;;;;;;;26.30;93.40;;;;;;5044419;28;19909;-48
2021/08/10 10:54:43;;;;;;;;;;;26.30;93.30;;;;;;5044264;28;19928;-48
2021/08/10 10:57:32;;;;;;;;;;;26.30;93.20;;;;;;5044326;28;19916;-47
2021/08/10 11:00:07;;;;;;;;;;;26.30;93.20;;;;;;5044124;28;19909;-51
2021/08/10 11:02:36;;;;;;;;;;;26.30;93.10;;;;;;5044005;28;19984;-48
2021/08/10 11:05:09;;;;;;;;;;;26.30;93.00;;;;;;5044068;28;19916;-49
2021/08/10 11:07:38;;;;;;;;;;;26.30;93.00;;;;;;5044023;28;19980;-50
2021/08/10 11:10:05;;;;;;;;;;;26.30;93.00;;;;;;5043969;28;19921;-49
2021/08/10 11:12:33;;;;;;;;;;;26.20;93.10;;;;;;5044082;28;19920;-52
2021/08/10 11:14:59;;;;;;;;;;;26.20;93.20;;;;;;5044133;28;19944;-53
2021/08/10 11:17:25;;;;;;;;;;;26.20;93.30;;;;;;5043941;28;19980;-48
2021/08/10 11:19:53;;;;;;;;;;;26.20;93.40;;;;;;5044030;28;19909;-52
2021/08/10 11:22:19;;;;;;;;;;;26.20;93.30;;;;;;5043859;28;20104;-48
2021/08/10 11:25:08;;;;;;;;;;;26.20;93.40;;;;;;5043786;28;19940;-49
2021/08/10 11:27:54;;;;;;;;;;;26.10;93.40;;;;;;5043351;28;19909;-45
2021/08/10 11:30:23;;;;;;;;;;;26.10;93.50;;;;;;5047781;28;19921;-48
2021/08/10 11:32:49;;;;;;;;;;;26.10;93.60;;;;;;5047760;28;19944;-45
2021/08/10 11:35:28;;;;;;;;;;;26.10;93.70;;;;;;5047673;28;19909;-49
2021/08/10 11:38:14;;;;;;;;;;;26.10;93.80;;;;;;5047842;28;19917;-49
2021/08/10 11:40:59;;;;;;;;;;;26.10;93.80;;;;;;5047459;28;19909;-47
2021/08/10 11:43:46;;;;;;;;;;;26.10;93.90;;;;;;5047345;28;19917;-46
2021/08/10 11:46:22;;;;;;;;;;;26.10;94.10;;;;;;5047721;28;19909;-56
2021/08/10 11:48:59;;;;;;;;;;;26.10;94.10;;;;;;5029475;28;19909;-50
2021/08/10 11:51:37;;;;;;;;;;;26.10;94.10;;;;;;5047761;28;19917;-49
2021/08/10 11:54:10;;;;;;;;;;;26.10;94.00;;;;;;5047218;28;19915;-45
2021/08/10 11:56:40;;;;;;;;;;;26.20;94.20;;;;;;5047155;28;19909;-49
2021/08/10 11:59:09;;;;;;;;;;;26.10;94.20;;;;;;5047250;28;19909;-46
2021/08/10 12:01:37;;;;;;;;;;;26.10;94.20;;;;;;5047591;28;19992;-51
2021/08/10 12:04:22;;;;;;;;;;;26.10;94.40;;;;;;5047055;28;19917;-50
2021/08/10 12:06:52;;;;;;;;;;;26.20;94.30;;;;;;5047355;28;19913;-58
2021/08/10 12:09:20;;;;;;;;;;;26.20;94.30;;;;;;5029179;28;19917;-45
2021/08/10 12:11:51;;;;;;;;;;;26.20;94.50;;;;;;5047474;28;20009;-47
2021/08/10 12:14:22;;;;;;;;;;;26.20;94.50;;;;;;5047035;28;20133;-45
2021/08/10 12:16:57;;;;;;;;;;;26.30;94.40;;;;;;5047468;28;19909;-49
2021/08/10 12:19:33;;;;;;;;;;;26.30;94.50;;;;;;5046769;28;20194;-47
2021/08/10 12:21:59;;;;;;;;;;;26.30;94.30;;;;;;5046730;28;19944;-47
2021/08/10 12:24:27;;;;;;;;;;;26.30;94.40;;;;;;5046741;28;19968;-48
2021/08/10 12:26:53;;;;;;;;;;;26.30;94.30;;;;;;5047284;28;19986;-53
2021/08/10 12:29:20;;;;;;;;;;;26.30;94.40;;;;;;5046467;28;20004;-50
2021/08/10 12:31:46;;;;;;;;;;;26.30;94.30;;;;;;5047077;28;19916;-46
2021/08/10 12:34:13;;;;;;;;;;;26.30;94.30;;;;;;5046450;28;19909;-56
2021/08/10 12:36:51;;;;;;;;;;;26.40;94.30;;;;;;5047253;28;19909;-52
2021/08/10 12:39:18;;;;;;;;;;;26.40;94.50;;;;;;5046293;28;19933;-46
2021/08/10 12:41:45;;;;;;;;;;;26.40;94.50;;;;;;5046414;28;19952;-51
2021/08/10 12:44:11;;;;;;;;;;;26.50;94.50;;;;;;5046457;28;19916;-46
2021/08/10 12:46:37;;;;;;;;;;;26.50;94.40;;;;;;5046695;28;19981;-52
2021/08/10 12:49:16;;;;;;;;;;;26.50;94.30;;;;;;5045893;28;19917;-47
2021/08/10 12:51:51;;;;;;;;;;;26.60;94.30;;;;;;5046695;28;19913;-47
2021/08/10 12:54:18;;;;;;;;;;;26.60;94.20;;;;;;5046327;28;19913;-46
2021/08/10 12:56:44;;;;;;;;;;;26.60;94.10;;;;;;5046197;28;19913;-51
2021/08/10 12:59:10;;;;;;;;;;;26.60;94.00;;;;;;5046157;28;19975;-58
2021/08/10 13:01:43;;;;;;;;;;;26.60;93.90;;;;;;5046436;28;19920;-59
2021/08/10 13:04:10;;;;;;;;;;;26.60;93.80;;;;;;5046085;28;20138;-51
2021/08/10 13:06:37;;;;;;;;;;;26.60;93.80;;;;;;5046419;28;19949;-47
2021/08/10 13:09:06;;;;;;;;;;;26.60;93.80;;;;;;5045850;28;19909;-47
2021/08/10 13:11:33;;;;;;;;;;;26.70;94.00;;;;;;5046353;28;20182;-49
2021/08/10 13:14:09;;;;;;;;;;;26.60;93.70;;;;;;5045802;28;19905;-47
2021/08/10 13:16:37;;;;;;;;;;;26.70;93.80;;;;;;5028120;28;19920;-46
2021/08/10 13:19:21;;;;;;;;;;;26.70;93.90;;;;;;5045950;28;19905;-46
2021/08/10 13:21:49;;;;;;;;;;;26.70;93.90;;;;;;5046265;28;19920;-48
2021/08/10 13:24:16;;;;;;;;;;;26.70;93.70;;;;;;5045819;28;19905;-48
2021/08/10 13:26:47;;;;;;;;;;;26.70;93.70;;;;;;5045571;28;19948;-44
2021/08/10 13:29:13;;;;;;;;;;;26.80;93.60;;;;;;5027983;28;20048;-46
2021/08/10 13:31:49;;;;;;;;;;;26.80;93.50;;;;;;5046154;28;20088;-47
2021/08/10 13:34:15;;;;;;;;;;;26.80;93.50;;;;;;5045479;28;19980;-50
2021/08/10 13:36:41;;;;;;;;;;;26.90;93.50;;;;;;5045799;28;19913;-45
2021/08/10 13:39:09;;;;;;;;;;;26.90;93.50;;;;;;5045782;28;19962;-49
2021/08/10 13:41:46;;;;;;;;;;;26.90;93.30;;;;;;5027779;28;19935;-49
2021/08/10 13:44:13;;;;;;;;;;;26.90;93.30;;;;;;5045565;28;19940;-49
2021/08/10 13:46:42;;;;;;;;;;;26.90;93.40;;;;;;5045608;28;19948;-53
2021/08/10 13:49:08;;;;;;;;;;;27.00;93.40;;;;;;5023938;28;19917;-52
2021/08/10 13:51:35;;;;;;;;;;;26.90;93.20;;;;;;5025451;28;19936;-44
2021/08/10 13:54:01;;;;;;;;;;;27.00;93.20;;;;;;5024163;28;19909;-44
2021/08/10 13:56:30;;;;;;;;;;;27.00;93.20;;;;;;5025696;28;19913;-44
2021/08/10 13:58:58;;;;;;;;;;;26.90;93.20;;;;;;5025348;28;19910;-54
2021/08/10 14:01:42;;;;;;;;;;;26.90;93.20;;;;;;5025443;28;19914;-52
2021/08/10 14:04:08;;;;;;;;;;;27.00;93.40;;;;;;5024237;28;19972;-49
2021/08/10 14:06:34;;;;;;;;;;;26.90;93.40;;;;;;5023947;28;20256;-49
2021/08/10 14:09:01;;;;;;;;;;;26.90;93.60;;;;;;5025060;28;19906;-47
2021/08/10 14:11:27;;;;;;;;;;;26.90;93.70;;;;;;5025310;28;19924;-45
2021/08/10 14:13:53;;;;;;;;;;;26.90;93.80;;;;;;5025026;28;19909;-49
2021/08/10 14:16:21;;;;;;;;;;;26.90;94.10;;;;;;5007500;28;19936;-49
2021/08/10 14:18:48;;;;;;;;;;;26.90;94.20;;;;;;5024833;28;19912;-47
2021/08/10 14:21:14;;;;;;;;;;;26.90;94.20;;;;;;5025526;28;20125;-46
2021/08/10 14:23:40;;;;;;;;;;;26.90;94.20;;;;;;5025056;28;19947;-47
2021/08/10 14:26:06;;;;;;;;;;;26.90;94.20;;;;;;5024634;28;19985;-47
2021/08/10 14:28:33;;;;;;;;;;;26.90;94.20;;;;;;5024507;28;19940;-50